Terminal Aerodrome Forecast
Issued by NWS

Home | Current Version | Previous Version | Text Only | Print | Product List | Glossary On
Versions: 1 2 3 4 5 6 7 8 9 10 11 12 13 14 15 16 17
000
FTUS41 KBTV 020520
TAFSLK
TAF
KSLK 020520Z 0206/0306 27005KT P6SM SCT015 BKN025
      TEMPO 0208/0210 4SM BR BKN009
     FM021100 25006KT P6SM SCT025
     FM021400 25008G14KT P6SM SCT035
     FM030000 VRB03KT P6SM SKC=

USA.gov is the U.S. government's official web portal to all federal, state and local government web resources and services.